Time;durP1;ratioP1;P1;durP2;ratioP2;P2;SDS_P1;SDS_P2;PMS_P1;PMS_P2;Temp;Humidity;BMP_temperature;BMP_pressure;BME280_temperature;BME280_humidity;BME280_pressure;Samples;Min_cycle;Max_cycle;Signal;HPM_P1;HPM_P2
2022/05/28 00:01:57;;;;;;;4.70;2.10;;;;;14.22;97093.20;;;;110769;1250;41887;-59
2022/05/28 00:04:27;;;;;;;5.50;2.20;;;;;14.20;97093.80;;;;110595;1253;41176;-59
2022/05/28 00:06:57;;;;;;;6.70;2.10;;;;;14.20;97093.00;;;;110642;1253;41157;-59
2022/05/28 00:09:26;;;;;;;3.80;1.90;;;;;14.10;97090.00;;;;110680;1251;41145;-58
2022/05/28 00:11:56;;;;;;;4.40;2.00;;;;;14.10;97086.80;;;;110478;1254;42399;-69
2022/05/28 00:14:27;;;;;;;4.40;2.10;;;;;14.10;97084.00;;;;110605;1253;41623;-59
2022/05/28 00:16:57;;;;;;;5.30;2.30;;;;;14.04;97083.20;;;;110718;1253;41251;-65
2022/05/28 00:19:28;;;;;;;5.30;2.30;;;;;14.00;97083.20;;;;110605;1253;41956;-59
2022/05/28 00:21:57;;;;;;;4.80;2.30;;;;;14.00;97075.00;;;;110703;1251;41493;-60
2022/05/28 00:24:29;;;;;;;5.70;2.40;;;;;14.00;97075.00;;;;110804;1252;41138;-58
2022/05/28 00:26:59;;;;;;;4.80;2.20;;;;;13.96;97075.60;;;;110709;1253;41254;-63
2022/05/28 00:29:28;;;;;;;6.80;2.10;;;;;13.92;97068.40;;;;110775;1251;42174;-60
2022/05/28 00:31:58;;;;;;;5.50;2.50;;;;;13.90;97066.80;;;;110788;1251;41959;-66
2022/05/28 00:34:29;;;;;;;5.90;2.40;;;;;13.90;97064.00;;;;110598;1254;41146;-73
2022/05/28 00:36:58;;;;;;;;;;;;;13.90;97066.60;;;;110614;1254;41699;-62
2022/05/28 00:39:28;;;;;;;4.80;2.30;;;;;13.80;97068.00;;;;110670;1251;41184;-59
2022/05/28 00:41:59;;;;;;;;;;;;;13.80;97065.40;;;;110631;1251;41157;-60
2022/05/28 00:44:29;;;;;;;6.60;2.80;;;;;13.80;97067.20;;;;110772;1251;41260;-59
2022/05/28 00:47:00;;;;;;;5.60;2.50;;;;;13.78;97060.60;;;;110646;1251;41258;-58
2022/05/28 00:49:30;;;;;;;;;;;;;13.80;97062.40;;;;110590;1254;41249;-59
2022/05/28 00:52:03;;;;;;;6.80;2.90;;;;;13.70;97058.40;;;;110502;1254;41611;-61
2022/05/28 00:54:39;;;;;;;8.80;3.00;;;;;13.80;97056.80;;;;110600;1251;41165;-59
2022/05/28 00:57:11;;;;;;;6.70;2.80;;;;;13.80;97051.80;;;;110564;1254;42095;-60
2022/05/28 00:59:42;;;;;;;5.10;2.50;;;;;13.76;97052.80;;;;110548;1254;41777;-58
2022/05/28 01:02:32;;;;;;;6.40;3.00;;;;;13.72;97052.20;;;;110566;1253;41270;-61
2022/05/28 01:05:11;;;;;;;6.30;2.70;;;;;13.70;97054.00;;;;110536;1254;41862;-60
2022/05/28 01:07:45;;;;;;;7.30;2.90;;;;;13.70;97058.40;;;;110575;1253;41161;-60
2022/05/28 01:10:28;;;;;;;5.20;2.40;;;;;13.70;97055.00;;;;110573;1253;42384;-59
2022/05/28 01:13:34;;;;;;;6.00;2.50;;;;;13.60;97052.20;;;;110534;1254;42050;-59
2022/05/28 01:16:16;;;;;;;5.40;2.40;;;;;13.60;97054.60;;;;110508;1254;41285;-58
2022/05/28 01:18:59;;;;;;;6.00;2.70;;;;;13.60;97049.40;;;;110643;1251;41808;-59
2022/05/28 01:21:38;;;;;;;6.60;2.50;;;;;13.60;97045.40;;;;110617;1251;41413;-59
2022/05/28 01:24:46;;;;;;;4.60;2.10;;;;;13.60;97044.20;;;;110493;1251;41374;-62
2022/05/28 01:27:20;;;;;;;6.10;2.60;;;;;13.70;97042.00;;;;110218;1255;41159;-58
2022/05/28 01:29:54;;;;;;;6.80;2.90;;;;;13.70;97040.40;;;;110605;1251;41377;-60
2022/05/28 01:32:25;;;;;;;8.00;3.00;;;;;13.80;97037.20;;;;110579;1251;41182;-59
2022/05/28 01:34:58;;;;;;;8.10;3.00;;;;;13.90;97029.60;;;;110564;1253;41639;-59
2022/05/28 01:37:29;;;;;;;6.10;2.70;;;;;13.90;97039.00;;;;110448;1254;41617;-66
2022/05/28 01:40:00;;;;;;;5.30;2.50;;;;;13.92;97045.00;;;;110502;1254;41240;-61
2022/05/28 01:42:31;;;;;;;6.60;2.60;;;;;14.00;97043.60;;;;110620;1253;41917;-58
2022/05/28 01:45:03;;;;;;;6.30;2.70;;;;;14.00;97048.00;;;;110833;1251;41613;-70
2022/05/28 01:47:34;;;;;;;8.50;3.00;;;;;14.00;97043.40;;;;110745;1251;41779;-62
2022/05/28 01:50:08;;;;;;;6.10;2.70;;;;;14.04;97043.60;;;;110437;1254;41609;-62
2022/05/28 01:52:39;;;;;;;8.60;3.20;;;;;14.00;97041.80;;;;110619;1251;41836;-59
2022/05/28 01:55:12;;;;;;;6.00;2.80;;;;;13.90;97041.00;;;;110600;1252;41595;-59
2022/05/28 01:57:42;;;;;;;5.50;2.60;;;;;13.94;97052.20;;;;110535;1254;41770;-60
2022/05/28 02:00:14;;;;;;;6.70;2.90;;;;;14.00;97048.40;;;;110615;1251;41270;-61
2022/05/28 02:02:44;;;;;;;8.10;2.80;;;;;13.90;97052.40;;;;110613;1251;41155;-59
2022/05/28 02:05:16;;;;;;;6.70;3.00;;;;;14.00;97052.60;;;;110437;1254;41714;-59
2022/05/28 02:07:46;;;;;;;;;;;;;14.04;97057.20;;;;110646;1252;41137;-61
2022/05/28 02:10:21;;;;;;;5.70;2.70;;;;;14.06;97053.60;;;;110706;1251;41150;-60
2022/05/28 02:13:18;;;;;;;6.00;2.70;;;;;14.10;97061.00;;;;110589;1253;41314;-58
2022/05/28 02:16:00;;;;;;;5.80;2.50;;;;;14.10;97060.80;;;;110678;1251;41163;-58
2022/05/28 02:19:00;;;;;;;7.90;3.00;;;;;14.20;97066.40;;;;110729;1251;41166;-65
2022/05/28 02:22:05;;;;;;;10.80;3.70;;;;;14.30;97076.00;;;;110584;1251;41175;-60
2022/05/28 02:24:41;;;;;;;7.70;3.90;;;;;14.32;97073.60;;;;110557;1251;41264;-59
2022/05/28 02:27:14;;;;;;;9.00;3.60;;;;;14.40;97065.20;;;;110600;1251;41154;-59
2022/05/28 02:29:44;;;;;;;7.90;3.90;;;;;14.44;97068.80;;;;110541;1254;41150;-59
2022/05/28 02:32:24;;;;;;;8.70;3.40;;;;;14.50;97058.00;;;;110529;1254;41288;-62
2022/05/28 02:34:54;;;;;;;9.40;3.70;;;;;14.50;97062.00;;;;110588;1251;41160;-63
2022/05/28 02:37:25;;;;;;;7.80;3.70;;;;;14.50;97064.80;;;;110652;1251;41165;-64
2022/05/28 02:39:57;;;;;;;7.00;3.00;;;;;14.60;97066.80;;;;110750;1251;41128;-62
2022/05/28 02:42:26;;;;;;;;;;;;;14.58;97061.60;;;;110756;1251;41258;-77
2022/05/28 02:44:56;;;;;;;7.50;3.50;;;;;14.50;97057.60;;;;110748;1251;41268;-63
2022/05/28 02:47:26;;;;;;;9.60;4.40;;;;;14.60;97054.80;;;;110531;1254;41176;-63
2022/05/28 02:49:55;;;;;;;8.50;3.70;;;;;14.60;97056.60;;;;110689;1251;41984;-68
2022/05/28 02:52:26;;;;;;;8.20;3.50;;;;;14.66;97054.80;;;;110791;1251;41142;-59
2022/05/28 02:54:55;;;;;;;6.30;2.90;;;;;14.70;97063.40;;;;110577;1251;41184;-60
2022/05/28 02:57:25;;;;;;;7.40;3.10;;;;;14.70;97066.80;;;;110759;1254;41185;-58
2022/05/28 02:59:56;;;;;;;7.00;3.10;;;;;14.70;97060.80;;;;110616;1253;41916;-64
2022/05/28 03:02:29;;;;;;;9.80;3.80;;;;;14.70;97056.00;;;;110602;1254;41944;-64
2022/05/28 03:04:59;;;;;;;8.20;3.50;;;;;14.60;97050.80;;;;110569;1253;41636;-59
2022/05/28 03:07:29;;;;;;;7.60;3.30;;;;;14.50;97053.40;;;;110545;1253;41271;-59
2022/05/28 03:09:59;;;;;;;5.90;2.70;;;;;14.50;97053.80;;;;110684;1251;42081;-56
2022/05/28 03:12:29;;;;;;;6.30;2.50;;;;;14.50;97054.60;;;;110485;1254;41198;-64
2022/05/28 03:14:59;;;;;;;7.10;2.50;;;;;14.54;97054.80;;;;110704;1251;41580;-59
2022/05/28 03:17:30;;;;;;;7.20;2.80;;;;;14.60;97051.80;;;;110775;1251;41161;-60
2022/05/28 03:20:01;;;;;;;9.20;2.90;;;;;14.60;97050.20;;;;110645;1250;41637;-59
2022/05/28 03:22:31;;;;;;;7.70;3.30;;;;;14.60;97045.80;;;;110789;1251;41541;-61
2022/05/28 03:25:01;;;;;;;6.60;3.00;;;;;14.60;97046.80;;;;110685;1251;41505;-59
2022/05/28 03:27:31;;;;;;;6.00;2.70;;;;;14.70;97045.00;;;;110787;1251;41159;-58
2022/05/28 03:30:01;;;;;;;6.90;3.00;;;;;14.70;97045.80;;;;110759;1251;41904;-59
2022/05/28 03:32:31;;;;;;;6.50;2.90;;;;;14.80;97046.40;;;;110633;1251;41714;-59
2022/05/28 03:35:01;;;;;;;8.40;2.80;;;;;14.80;97049.20;;;;110671;1251;41192;-60
2022/05/28 03:37:31;;;;;;;7.00;2.80;;;;;14.88;97046.80;;;;110865;1251;41790;-63
2022/05/28 03:40:01;;;;;;;6.90;2.90;;;;;14.90;97047.00;;;;110816;1251;41651;-59
2022/05/28 03:42:31;;;;;;;5.60;2.40;;;;;15.00;97047.60;;;;110801;1251;42062;-60
2022/05/28 03:45:01;;;;;;;7.50;3.00;;;;;15.02;97044.60;;;;110818;1252;41255;-60
2022/05/28 03:47:32;;;;;;;5.40;2.60;;;;;15.10;97044.60;;;;110673;1250;41161;-59
2022/05/28 03:50:03;;;;;;;7.40;3.40;;;;;15.18;97041.80;;;;110749;1251;41569;-59
2022/05/28 03:52:36;;;;;;;6.60;3.00;;;;;15.20;97034.80;;;;110642;1250;41435;-62
2022/05/28 03:55:06;;;;;;;6.60;3.20;;;;;15.20;97034.60;;;;110544;1254;41461;-59
2022/05/28 03:57:36;;;;;;;8.00;3.40;;;;;15.30;97035.00;;;;110584;1253;41647;-60
2022/05/28 04:00:07;;;;;;;7.10;3.10;;;;;15.38;97034.20;;;;110643;1253;41194;-63
2022/05/28 04:02:37;;;;;;;9.40;3.30;;;;;15.46;97027.60;;;;110622;1253;43060;-60
2022/05/28 04:05:07;;;;;;;7.80;2.80;;;;;15.56;97029.00;;;;110789;1251;41272;-59
2022/05/28 04:07:37;;;;;;;7.10;3.20;;;;;15.70;97036.40;;;;110767;1251;41950;-60
2022/05/28 04:10:08;;;;;;;8.30;2.90;;;;;15.86;97041.20;;;;110583;1254;41279;-66
2022/05/28 04:12:37;;;;;;;7.40;2.90;;;;;16.12;97034.00;;;;110778;1251;41198;-65
2022/05/28 04:15:08;;;;;;;5.80;2.70;;;;;16.42;97028.20;;;;110637;1251;41144;-59
2022/05/28 04:17:38;;;;;;;10.60;4.60;;;;;16.70;97034.80;;;;110576;1252;41602;-63
2022/05/28 04:20:10;;;;;;;10.70;4.70;;;;;16.90;97036.60;;;;110735;1250;41369;-62
2022/05/28 04:22:40;;;;;;;11.10;4.00;;;;;16.84;97040.60;;;;110710;1251;42378;-61
2022/05/28 04:25:10;;;;;;;8.20;3.20;;;;;16.80;97046.00;;;;110621;1251;41319;-61
2022/05/28 04:27:41;;;;;;;7.60;3.50;;;;;16.70;97050.60;;;;110604;1251;42368;-61
2022/05/28 04:30:11;;;;;;;8.10;3.90;;;;;16.70;97043.60;;;;110781;1251;42372;-60
2022/05/28 04:32:41;;;;;;;10.50;3.90;;;;;16.60;97042.60;;;;110754;1251;41269;-60
2022/05/28 04:35:11;;;;;;;7.90;3.40;;;;;16.50;97046.60;;;;110779;1251;41351;-77
2022/05/28 04:37:41;;;;;;;7.80;3.20;;;;;16.50;97048.00;;;;110656;1251;41882;-64
2022/05/28 04:40:12;;;;;;;5.50;2.60;;;;;16.50;97048.00;;;;110736;1251;41569;-67
2022/05/28 04:42:41;;;;;;;6.90;2.50;;;;;16.50;97051.40;;;;110716;1251;41259;-63
2022/05/28 04:45:11;;;;;;;5.20;2.40;;;;;16.60;97052.80;;;;110729;1251;42410;-61
2022/05/28 04:47:40;;;;;;;5.00;2.40;;;;;16.70;97052.60;;;;110771;1250;41259;-62
2022/05/28 04:50:10;;;;;;;5.30;2.50;;;;;16.78;97060.20;;;;110640;1253;41197;-60
2022/05/28 04:52:41;;;;;;;6.00;2.50;;;;;16.80;97061.60;;;;110780;1251;41599;-59
2022/05/28 04:55:12;;;;;;;6.40;2.60;;;;;16.80;97062.60;;;;110831;1251;42062;-69
2022/05/28 04:57:41;;;;;;;6.40;2.50;;;;;16.90;97064.40;;;;110806;1251;41185;-59
2022/05/28 05:00:14;;;;;;;5.40;2.40;;;;;16.90;97066.20;;;;110711;1250;43014;-61
2022/05/28 05:02:43;;;;;;;7.50;3.40;;;;;16.90;97065.60;;;;110752;1251;41990;-60
2022/05/28 05:05:12;;;;;;;8.80;3.80;;;;;16.90;97070.40;;;;110803;1251;41598;-60
2022/05/28 05:07:42;;;;;;;7.80;3.50;;;;;16.80;97074.80;;;;110807;1251;41636;-58
2022/05/28 05:10:12;;;;;;;9.90;4.10;;;;;16.70;97081.40;;;;110648;1250;42282;-61
2022/05/28 05:12:41;;;;;;;8.00;3.40;;;;;16.60;97082.80;;;;110482;1251;41683;-59
2022/05/28 05:15:12;;;;;;;11.10;3.80;;;;;16.50;97090.40;;;;110664;1251;41185;-68
2022/05/28 05:17:42;;;;;;;12.10;3.60;;;;;16.40;97091.00;;;;110580;1251;41161;-62
2022/05/28 05:20:12;;;;;;;7.10;3.40;;;;;16.30;97092.40;;;;110723;1251;41132;-63
2022/05/28 05:22:41;;;;;;;12.30;3.70;;;;;16.26;97092.00;;;;110544;1253;42096;-62
2022/05/28 05:25:13;;;;;;;9.40;4.00;;;;;16.16;97101.20;;;;110758;1250;41660;-60
2022/05/28 05:27:45;;;;;;;8.60;3.70;;;;;16.20;97102.60;;;;110616;1250;41273;-60
2022/05/28 05:30:15;;;;;;;12.80;4.10;;;;;16.20;97103.80;;;;110819;1251;41177;-59
2022/05/28 05:32:44;;;;;;;8.50;3.40;;;;;16.20;97107.40;;;;110603;1251;41250;-59
2022/05/28 05:35:14;;;;;;;7.50;3.30;;;;;16.20;97112.20;;;;110509;1252;41159;-61
2022/05/28 05:37:43;;;;;;;6.80;2.80;;;;;16.30;97117.60;;;;110829;1250;41795;-58
2022/05/28 05:40:14;;;;;;;8.70;3.60;;;;;16.30;97109.00;;;;110788;1251;41133;-62
2022/05/28 05:42:43;;;;;;;10.90;4.50;;;;;16.40;97104.20;;;;110571;1253;41277;-60
2022/05/28 05:45:12;;;;;;;10.80;4.30;;;;;16.48;97105.80;;;;110649;1252;41964;-58
2022/05/28 05:47:41;;;;;;;8.80;4.30;;;;;16.50;97107.80;;;;110658;1251;41598;-60
2022/05/28 05:50:11;;;;;;;10.60;4.90;;;;;16.52;97101.60;;;;110634;1252;42476;-59
2022/05/28 05:52:40;;;;;;;9.40;4.30;;;;;16.60;97104.20;;;;110540;1253;42535;-66
2022/05/28 05:55:16;;;;;;;8.30;3.60;;;;;16.70;97109.00;;;;110703;1251;41210;-68
2022/05/28 05:57:45;;;;;;;10.10;3.50;;;;;16.90;97098.60;;;;110833;1250;42619;-61
2022/05/28 06:00:15;;;;;;;7.10;3.10;;;;;17.10;97093.00;;;;110625;1251;41156;-69
2022/05/28 06:02:44;;;;;;;7.80;3.40;;;;;17.30;97080.40;;;;110632;1251;41153;-60
2022/05/28 06:05:13;;;;;;;8.60;3.60;;;;;17.60;97078.60;;;;110810;1251;41861;-68
2022/05/28 06:07:42;;;;;;;9.60;3.70;;;;;18.00;97075.60;;;;110653;1250;41599;-69
2022/05/28 06:10:12;;;;;;;7.70;3.40;;;;;18.30;97073.60;;;;110631;1253;41162;-64
2022/05/28 06:12:41;;;;;;;8.20;4.40;;;;;18.60;97078.20;;;;110754;1251;41127;-62
2022/05/28 06:15:12;;;;;;;8.90;4.30;;;;;18.74;97081.40;;;;110592;1251;41855;-59
2022/05/28 06:17:41;;;;;;;9.80;3.70;;;;;18.80;97075.80;;;;110638;1251;41148;-60
2022/05/28 06:20:12;;;;;;;10.20;3.50;;;;;18.90;97068.60;;;;110644;1250;41156;-58
2022/05/28 06:22:41;;;;;;;8.30;4.20;;;;;19.10;97066.00;;;;110709;1250;41336;-61
2022/05/28 06:25:11;;;;;;;10.20;5.40;;;;;19.16;97069.80;;;;110751;1250;41723;-65
2022/05/28 06:27:40;;;;;;;8.90;4.30;;;;;19.10;97069.80;;;;110441;1250;436130;-70
2022/05/28 06:30:11;;;;;;;8.20;3.50;;;;;19.00;97080.40;;;;110577;1253;42409;-62
2022/05/28 06:32:40;;;;;;;8.40;3.30;;;;;19.00;97082.60;;;;110775;1251;41331;-60
2022/05/28 06:35:09;;;;;;;8.70;4.10;;;;;19.10;97076.00;;;;110707;1251;41496;-59
2022/05/28 06:37:38;;;;;;;9.70;3.70;;;;;19.02;97076.40;;;;110645;1250;41727;-72
2022/05/28 06:40:09;;;;;;;9.10;3.90;;;;;19.00;97087.20;;;;110584;1253;41758;-60
2022/05/28 06:42:38;;;;;;;10.50;4.70;;;;;19.00;97086.60;;;;110619;1251;41187;-68
2022/05/28 06:45:13;;;;;;;10.20;4.80;;;;;18.82;97096.00;;;;110735;1250;41867;-58
2022/05/28 06:47:44;;;;;;;9.60;4.70;;;;;18.70;97094.80;;;;110720;1251;41933;-61
2022/05/28 06:53:03;;;;;;;8.00;3.80;;;;;18.46;97088.60;;;;110787;1250;41175;-66
2022/05/28 06:55:33;;;;;;;8.20;3.70;;;;;18.40;97093.80;;;;110688;1250;41160;-59
2022/05/28 06:58:03;;;;;;;8.30;3.90;;;;;18.40;97098.00;;;;110760;1250;41878;-59
2022/05/28 07:00:33;;;;;;;8.90;3.70;;;;;18.40;97091.80;;;;110813;1251;41942;-61
2022/05/28 07:03:04;;;;;;;7.80;3.30;;;;;18.44;97096.20;;;;110756;1250;41898;-61
2022/05/28 07:05:33;;;;;;;7.30;3.20;;;;;18.50;97099.20;;;;110593;1251;41338;-61
2022/05/28 07:08:06;;;;;;;10.20;3.90;;;;;18.52;97098.40;;;;110786;1251;41408;-59
2022/05/28 07:10:38;;;;;;;9.10;3.80;;;;;18.60;97096.20;;;;110636;1251;42831;-59
2022/05/28 07:13:07;;;;;;;8.00;3.70;;;;;18.60;97097.40;;;;110575;1253;41607;-63
2022/05/28 07:15:37;;;;;;;8.70;3.50;;;;;18.60;97098.00;;;;110636;1251;42059;-61
2022/05/28 07:18:07;;;;;;;8.50;3.70;;;;;18.68;97099.60;;;;110660;1250;41699;-59
2022/05/28 07:20:37;;;;;;;7.70;3.20;;;;;18.70;97101.20;;;;110623;1253;41849;-59
2022/05/28 07:23:20;;;;;;;8.50;3.80;;;;;18.70;97110.20;;;;110577;1251;41144;-63
2022/05/28 07:25:53;;;;;;;8.70;3.70;;;;;18.70;97109.40;;;;110821;1250;41157;-59
2022/05/28 07:28:25;;;;;;;8.40;3.40;;;;;18.60;97110.00;;;;110576;1251;41598;-59
2022/05/28 07:30:56;;;;;;;8.50;3.60;;;;;18.60;97098.20;;;;110603;1253;41245;-62
2022/05/28 07:33:30;;;;;;;7.30;3.20;;;;;18.60;97098.60;;;;110424;1254;41744;-63
2022/05/28 07:35:59;;;;;;;8.40;3.70;;;;;18.70;97094.60;;;;110681;1251;41151;-61
2022/05/28 07:38:30;;;;;;;7.40;3.10;;;;;18.70;97094.00;;;;110625;1251;41134;-60
2022/05/28 07:41:04;;;;;;;6.80;3.10;;;;;18.80;97092.60;;;;110570;1251;41267;-59
2022/05/28 07:43:34;;;;;;;8.40;3.50;;;;;18.94;97080.00;;;;110658;1251;41147;-59
2022/05/28 07:46:10;;;;;;;8.00;3.10;;;;;19.06;97075.20;;;;110624;1250;41152;-61
2022/05/28 07:48:40;;;;;;;6.30;2.70;;;;;19.20;97070.80;;;;110571;1253;42578;-61
2022/05/28 07:51:09;;;;;;;6.10;2.60;;;;;19.28;97074.00;;;;110581;1251;41155;-59
2022/05/28 07:53:39;;;;;;;7.90;3.20;;;;;19.38;97072.20;;;;110616;1251;41185;-59
2022/05/28 07:56:09;;;;;;;7.90;3.30;;;;;19.50;97077.40;;;;110600;1251;41613;-63
2022/05/28 07:58:40;;;;;;;8.20;3.10;;;;;19.60;97081.80;;;;110659;1251;42217;-58
2022/05/28 08:01:21;;;;;;;7.30;2.90;;;;;19.70;97079.60;;;;110660;1251;41866;-69
2022/05/28 08:03:51;;;;;;;7.90;3.50;;;;;19.80;97076.20;;;;110683;1251;41161;-71
2022/05/28 08:06:20;;;;;;;7.90;3.20;;;;;19.96;97075.80;;;;110551;1253;41199;-60
2022/05/28 08:08:51;;;;;;;6.30;2.70;;;;;20.00;97072.40;;;;110603;1251;41721;-63
2022/05/28 08:11:21;;;;;;;7.10;3.10;;;;;20.20;97074.40;;;;110575;1253;41273;-62
2022/05/28 08:13:53;;;;;;;6.90;3.10;;;;;20.38;97076.00;;;;110518;1253;41782;-64
2022/05/28 08:16:24;;;;;;;8.10;3.50;;;;;20.64;97076.80;;;;110553;1251;41157;-60
2022/05/28 08:18:53;;;;;;;8.70;3.40;;;;;20.94;97074.40;;;;110579;1251;41125;-60
2022/05/28 08:24:10;;;;;;;6.70;2.90;;;;;21.40;97079.20;;;;110664;1251;41550;-67
2022/05/28 08:26:39;;;;;;;5.80;2.60;;;;;21.50;97076.20;;;;110546;1253;41642;-66
2022/05/28 08:29:08;;;;;;;6.30;2.80;;;;;21.60;97085.00;;;;110566;1253;41278;-60
2022/05/28 08:31:37;;;;;;;6.30;2.70;;;;;21.70;97090.80;;;;110613;1251;41734;-60
2022/05/28 08:34:07;;;;;;;5.90;2.50;;;;;21.80;97088.40;;;;110705;1250;41610;-64
2022/05/28 08:36:36;;;;;;;8.30;3.10;;;;;22.02;97088.20;;;;110591;1253;41818;-66
2022/05/28 08:39:05;;;;;;;7.10;3.20;;;;;22.30;97092.20;;;;110683;1251;42468;-62
2022/05/28 08:41:43;;;;;;;7.30;2.90;;;;;22.40;97091.80;;;;110801;1250;41624;-67
2022/05/28 08:44:14;;;;;;;5.60;2.50;;;;;22.60;97092.00;;;;110790;1250;41158;-73
2022/05/28 08:46:46;;;;;;;6.80;2.60;;;;;22.60;97095.60;;;;110659;1250;41907;-63
2022/05/28 08:49:15;;;;;;;7.10;2.90;;;;;22.60;97101.80;;;;110775;1250;41937;-59
2022/05/28 08:51:49;;;;;;;7.80;2.80;;;;;22.50;97112.00;;;;110579;1253;42137;-62
2022/05/28 08:54:18;;;;;;;7.00;3.00;;;;;22.40;97112.20;;;;110818;1250;41153;-64
2022/05/28 08:56:48;;;;;;;6.80;2.40;;;;;22.30;97112.60;;;;110646;1251;41593;-60
2022/05/28 08:59:25;;;;;;;6.00;2.20;;;;;22.26;97105.00;;;;110567;1252;41207;-58
2022/05/28 09:01:57;;;;;;;7.50;2.70;;;;;22.10;97101.40;;;;110632;1251;41130;-60
2022/05/28 09:04:39;;;;;;;6.50;2.70;;;;;22.10;97098.60;;;;110651;1250;41245;-61
2022/05/28 09:07:12;;;;;;;6.40;2.50;;;;;22.00;97096.40;;;;110636;1251;41242;-60
2022/05/28 09:09:47;;;;;;;5.80;2.50;;;;;21.90;97101.00;;;;110740;1250;41905;-63
2022/05/28 09:12:35;;;;;;;7.20;2.40;;;;;21.78;97097.80;;;;110696;1250;41130;-64
2022/05/28 09:15:05;;;;;;;5.00;2.10;;;;;21.66;97099.20;;;;110764;1250;41141;-65
2022/05/28 09:17:40;;;;;;;5.00;2.20;;;;;21.70;97096.00;;;;110649;1251;41148;-58
2022/05/28 09:20:17;;;;;;;5.90;2.10;;;;;21.70;97103.00;;;;110624;1251;41156;-62
2022/05/28 09:22:48;;;;;;;7.20;2.10;;;;;21.86;97111.60;;;;110744;1250;41835;-63
2022/05/28 09:25:20;;;;;;;4.70;2.10;;;;;22.10;97115.80;;;;110738;1250;41142;-60
2022/05/28 09:28:17;;;;;;;5.40;2.10;;;;;22.40;97110.20;;;;110769;1250;41242;-60
2022/05/28 09:31:25;;;;;;;6.60;2.40;;;;;22.80;97115.80;;;;110685;1250;41389;-69
2022/05/28 09:34:31;;;;;;;5.40;2.20;;;;;23.20;97120.20;;;;110658;1251;41905;-74
2022/05/28 09:37:11;;;;;;;6.40;2.10;;;;;23.54;97128.60;;;;110404;1251;41278;-59
2022/05/28 09:39:49;;;;;;;;;;;;;23.60;97129.40;;;;110826;1250;41153;-59
2022/05/28 09:42:46;;;;;;;6.70;2.30;;;;;23.60;97140.40;;;;110732;1251;41867;-59
2022/05/28 09:45:52;;;;;;;6.30;2.50;;;;;23.50;97141.20;;;;110764;1250;41590;-59
2022/05/28 09:48:25;;;;;;;4.30;2.00;;;;;23.36;97147.20;;;;110734;1250;42313;-59
2022/05/28 09:50:55;;;;;;;7.50;2.40;;;;;23.16;97153.60;;;;110607;1250;41249;-58
2022/05/28 09:56:36;;;;;;;4.70;1.90;;;;;22.60;97165.00;;;;110691;1253;41257;-59
2022/05/28 09:59:18;;;;;;;3.80;2.00;;;;;22.16;97160.40;;;;110537;1251;41271;-58
2022/05/28 10:01:55;;;;;;;5.70;1.80;;;;;21.84;97159.00;;;;110734;1250;42107;-59
2022/05/28 10:04:31;;;;;;;6.60;1.80;;;;;21.78;97157.80;;;;110799;1250;42501;-72
2022/05/28 10:07:04;;;;;;;25.70;12.80;;;;;21.70;97152.60;;;;110528;1252;41152;-63
2022/05/28 10:09:34;;;;;;;9.00;3.70;;;;;21.70;97146.80;;;;110665;1250;41920;-66
2022/05/28 10:12:15;;;;;;;5.70;2.40;;;;;21.70;97141.20;;;;110608;1251;42298;-64
2022/05/28 10:14:44;;;;;;;6.20;2.10;;;;;21.60;97127.60;;;;110618;1253;41147;-65
2022/05/28 10:17:22;;;;;;;7.20;2.70;;;;;21.60;97125.80;;;;110735;1250;41935;-70
2022/05/28 10:19:55;;;;;;;10.40;4.70;;;;;21.50;97124.00;;;;110671;1251;42124;-63
2022/05/28 10:22:25;;;;;;;9.60;4.40;;;;;21.50;97124.80;;;;110571;1251;41165;-67
2022/05/28 10:24:58;;;;;;;7.60;2.70;;;;;21.50;97125.20;;;;110768;1250;41137;-59
2022/05/28 10:27:34;;;;;;;6.70;2.20;;;;;21.50;97131.20;;;;110810;1250;42388;-61
2022/05/28 10:30:09;;;;;;;6.10;2.30;;;;;21.66;97131.40;;;;110845;1250;41156;-74
2022/05/28 10:32:43;;;;;;;4.00;1.90;;;;;21.70;97132.80;;;;110569;1251;41722;-65
2022/05/28 10:35:16;;;;;;;4.70;1.80;;;;;21.88;97134.00;;;;110670;1251;41157;-61
2022/05/28 10:37:45;;;;;;;5.70;1.90;;;;;22.00;97134.60;;;;110572;1253;41339;-65
2022/05/28 10:40:25;;;;;;;4.00;1.70;;;;;22.00;97136.40;;;;110643;1250;41795;-62
2022/05/28 10:42:59;;;;;;;8.70;1.80;;;;;22.10;97133.80;;;;110549;1253;41154;-59
2022/05/28 10:45:38;;;;;;;4.50;1.70;;;;;22.10;97138.40;;;;110516;1252;41255;-64
2022/05/28 10:48:32;;;;;;;3.90;1.70;;;;;22.00;97146.00;;;;110652;1252;41149;-62
2022/05/28 10:51:11;;;;;;;13.90;5.60;;;;;21.80;97146.60;;;;110622;1251;41272;-59
2022/05/28 10:53:56;;;;;;;17.30;10.60;;;;;21.70;97153.80;;;;110561;1251;41530;-72
2022/05/28 10:56:32;;;;;;;26.30;16.70;;;;;21.50;97156.00;;;;110774;1251;41586;-67
2022/05/28 10:59:22;;;;;;;30.90;18.00;;;;;21.34;97161.80;;;;110504;1253;41814;-70
2022/05/28 11:02:29;;;;;;;53.70;33.90;;;;;21.18;97156.40;;;;110616;1252;41272;-59
2022/05/28 11:05:29;;;;;;;87.80;50.20;;;;;20.90;97157.60;;;;110563;1252;41610;-59
2022/05/28 11:08:07;;;;;;;52.90;32.70;;;;;20.76;97148.20;;;;110543;1252;41152;-67
2022/05/28 11:10:41;;;;;;;21.30;12.80;;;;;20.66;97139.80;;;;110678;1251;41968;-64
2022/05/28 11:13:32;;;;;;;10.60;4.80;;;;;20.60;97138.60;;;;110558;1253;41473;-68
2022/05/28 11:16:24;;;;;;;5.60;2.60;;;;;20.50;97142.40;;;;110518;1251;41162;-60
2022/05/28 11:19:08;;;;;;;4.50;1.90;;;;;20.50;97138.80;;;;110641;1251;41536;-59
2022/05/28 11:21:50;;;;;;;3.10;1.70;;;;;20.40;97142.20;;;;110552;1253;41159;-61
2022/05/28 11:24:48;;;;;;;2.80;1.60;;;;;20.40;97140.60;;;;110535;1253;41163;-60
2022/05/28 11:27:40;;;;;;;2.70;1.60;;;;;20.38;97146.40;;;;110538;1253;41624;-65
2022/05/28 11:30:20;;;;;;;3.00;1.50;;;;;20.30;97149.40;;;;110564;1253;41263;-64
2022/05/28 11:33:11;;;;;;;2.00;1.50;;;;;20.22;97150.60;;;;110563;1252;41167;-70
2022/05/28 11:35:46;;;;;;;;;;;;;20.20;97148.80;;;;110572;1252;41631;-60
2022/05/28 11:38:32;;;;;;;2.40;1.30;;;;;20.10;97153.00;;;;110550;1253;42153;-64
2022/05/28 11:41:08;;;;;;;3.50;1.60;;;;;20.00;97148.80;;;;110630;1251;42107;-61
2022/05/28 11:43:46;;;;;;;4.30;1.50;;;;;20.00;97145.80;;;;110568;1253;41246;-60
2022/05/28 11:47:06;;;;;;;3.90;1.50;;;;;20.00;97144.00;;;;110661;1251;41955;-61
2022/05/28 11:53:12;;;;;;;1.90;1.40;;;;;20.10;97133.00;;;;110055;1260;41247;-60
2022/05/28 11:55:43;;;;;;;2.60;1.50;;;;;20.10;97133.60;;;;110163;1257;41755;-59
2022/05/28 11:58:21;;;;;;;3.80;1.60;;;;;20.10;97131.80;;;;110150;1258;42286;-59
2022/05/28 12:00:55;;;;;;;2.60;1.40;;;;;20.20;97140.60;;;;110087;1259;41149;-61
2022/05/28 12:03:27;;;;;;;4.30;1.90;;;;;20.10;97132.80;;;;110049;1259;42591;-61
2022/05/28 12:06:09;;;;;;;2.70;1.50;;;;;20.10;97118.00;;;;110011;1260;42136;-67
2022/05/28 12:08:42;;;;;;;3.00;1.50;;;;;20.10;97121.60;;;;110145;1259;41761;-71
2022/05/28 12:11:20;;;;;;;2.80;1.40;;;;;20.10;97126.60;;;;110165;1257;41734;-60
2022/05/28 12:13:52;;;;;;;5.40;1.70;;;;;20.10;97124.20;;;;110063;1258;41471;-63
2022/05/28 12:16:21;;;;;;;4.20;1.70;;;;;20.12;97130.60;;;;110162;1257;41197;-66
2022/05/28 12:19:13;;;;;;;4.40;2.00;;;;;20.18;97128.80;;;;110117;1259;41442;-64
2022/05/28 12:21:44;;;;;;;4.30;2.00;;;;;20.10;97128.60;;;;109980;1258;41593;-63
2022/05/28 12:24:20;;;;;;;4.20;1.80;;;;;20.10;97127.80;;;;110396;1253;41174;-74
2022/05/28 12:29:41;;;;;;;4.10;1.80;;;;;20.20;97118.80;;;;110678;1251;41190;-63
2022/05/28 12:32:15;;;;;;;3.50;1.60;;;;;20.34;97119.40;;;;110654;1251;41622;-69
2022/05/28 12:35:05;;;;;;;3.20;1.50;;;;;20.44;97120.80;;;;110655;1251;41154;-63
2022/05/28 12:37:34;;;;;;;3.30;1.70;;;;;20.58;97118.20;;;;110623;1251;42033;-67
2022/05/28 12:40:25;;;;;;;3.50;1.60;;;;;20.60;97110.80;;;;110584;1251;41315;-65
2022/05/28 12:42:54;;;;;;;3.40;1.80;;;;;20.70;97108.00;;;;110610;1251;42202;-63
2022/05/28 12:45:40;;;;;;;3.40;1.50;;;;;20.72;97108.80;;;;110461;1253;41907;-65
2022/05/28 12:48:16;;;;;;;2.30;1.50;;;;;20.80;97107.20;;;;110515;1252;41348;-62
2022/05/28 12:50:59;;;;;;;4.20;1.70;;;;;20.80;97115.20;;;;110707;1251;42154;-73
2022/05/28 12:53:31;;;;;;;3.50;1.70;;;;;20.80;97119.20;;;;110665;1251;41715;-60
2022/05/28 12:56:28;;;;;;;3.50;1.60;;;;;20.70;97117.00;;;;110681;1250;41185;-69
2022/05/28 12:59:27;;;;;;;5.50;1.70;;;;;20.66;97113.20;;;;110667;1251;41149;-63